Time;durP1;ratioP1;P1;durP2;ratioP2;P2;SDS_P1;SDS_P2;PMS_P1;PMS_P2;Temp;Humidity;BMP_temperature;BMP_pressure;BME280_temperature;BME280_humidity;BME280_pressure;Samples;Min_cycle;Max_cycle;Signal;HPM_P1;HPM_P2
2023/09/06 00:02:07;;;;;;;4.30;2.55;;;;;;;-148.88;100.00;-17125.47;4935155;29;20031;-76
2023/09/06 00:04:32;;;;;;;7.32;3.17;;;;;;;-148.88;100.00;-17125.47;4935123;29;20039;-76
2023/09/06 00:06:58;;;;;;;3.67;2.70;;;;;;;-148.88;100.00;-17125.47;4934108;29;20019;-76
2023/09/06 00:09:23;;;;;;;5.30;2.65;;;;;;;-148.88;100.00;-17125.47;4935321;29;20032;-76
2023/09/06 00:11:48;;;;;;;6.70;2.80;;;;;;;-148.88;100.00;-17125.47;4934577;29;20403;-75
2023/09/06 00:14:15;;;;;;;3.30;2.40;;;;;;;-148.88;100.00;-17125.47;4935310;29;20427;-75
2023/09/06 00:16:41;;;;;;;2.95;2.50;;;;;;;-148.88;100.00;-17125.47;4935594;29;20506;-75
2023/09/06 00:19:06;;;;;;;4.55;2.72;;;;;;;-148.88;100.00;-17125.47;4933651;29;20039;-75
2023/09/06 00:21:35;;;;;;;3.38;2.30;;;;;;;-148.88;100.00;-17125.47;4935155;29;20395;-75
2023/09/06 00:24:00;;;;;;;4.07;2.53;;;;;;;-148.88;100.00;-17125.47;4935040;29;20024;-76
2023/09/06 00:26:26;;;;;;;4.40;2.40;;;;;;;-148.88;100.00;-17125.47;4934964;29;20028;-75
2023/09/06 00:28:51;;;;;;;4.88;2.40;;;;;;;-148.88;100.00;-17125.47;4934895;29;20058;-76
2023/09/06 00:31:17;;;;;;;8.15;2.75;;;;;;;-148.88;100.00;-17125.47;4935064;29;20024;-76
2023/09/06 00:33:44;;;;;;;3.22;2.20;;;;;;;-148.88;100.00;-17125.47;4934674;29;20040;-76
2023/09/06 00:36:09;;;;;;;2.70;1.92;;;;;;;-148.88;100.00;-17125.47;4934777;29;20028;-76
2023/09/06 00:38:35;;;;;;;7.65;2.40;;;;;;;-148.88;100.00;-17125.47;4934618;29;20111;-76
2023/09/06 00:41:00;;;;;;;4.22;2.40;;;;;;;-148.88;100.00;-17125.47;4934907;29;20035;-76
2023/09/06 00:43:26;;;;;;;3.22;2.10;;;;;;;-148.88;100.00;-17125.47;4934938;29;20099;-76
2023/09/06 00:45:52;;;;;;;2.80;2.20;;;;;;;-148.88;100.00;-17125.47;4935095;29;20551;-76
2023/09/06 00:48:29;;;;;;;4.35;2.22;;;;;;;-148.88;100.00;-17125.47;4934351;29;20376;-75
2023/09/06 00:50:56;;;;;;;3.30;2.58;;;;;;;-148.88;100.00;-17125.47;4934166;29;20031;-75
2023/09/06 00:53:25;;;;;;;4.72;2.50;;;;;;;-148.88;100.00;-17125.47;4933474;29;20042;-75
2023/09/06 00:55:51;;;;;;;3.63;2.20;;;;;;;-148.88;100.00;-17125.47;4934650;29;20027;-76
2023/09/06 00:58:18;;;;;;;2.90;2.17;;;;;;;-148.88;100.00;-17125.47;4934711;29;20039;-76
2023/09/06 01:00:45;;;;;;;2.83;2.20;;;;;;;-148.88;100.00;-17125.47;4933752;29;20081;-75
2023/09/06 01:03:11;;;;;;;2.97;2.15;;;;;;;-148.88;100.00;-17125.47;4933434;29;20031;-76
2023/09/06 01:05:46;;;;;;;3.38;2.33;;;;;;;-148.88;100.00;-17125.47;4933275;29;20118;-76
2023/09/06 01:08:18;;;;;;;5.25;2.55;;;;;;;-148.88;100.00;-17125.47;4933079;29;20031;-75
2023/09/06 01:10:44;;;;;;;4.32;2.55;;;;;;;-148.88;100.00;-17125.47;4934807;29;20352;-76
2023/09/06 01:13:10;;;;;;;4.35;2.50;;;;;;;-148.88;100.00;-17125.47;4934570;29;20031;-76
2023/09/06 01:15:40;;;;;;;4.28;2.70;;;;;;;-148.88;100.00;-17125.47;4934402;29;20028;-76
2023/09/06 01:18:07;;;;;;;6.88;2.75;;;;;;;-148.88;100.00;-17125.47;4934670;29;20076;-76
2023/09/06 01:20:42;;;;;;;5.30;2.53;;;;;;;-148.88;100.00;-17125.47;4934459;29;20032;-75
2023/09/06 01:23:26;;;;;;;4.13;2.45;;;;;;;-148.88;100.00;-17125.47;4935063;29;20027;-76
2023/09/06 01:25:52;;;;;;;;;;;;;;;-148.88;100.00;-17125.47;4938246;29;20035;-75
2023/09/06 01:28:18;;;;;;;3.00;2.42;;;;;;;-148.88;100.00;-17125.47;4936771;29;19911;-75
2023/09/06 01:30:43;;;;;;;4.88;2.88;;;;;;;-148.88;100.00;-17125.47;4938061;29;20032;-76
2023/09/06 01:33:08;;;;;;;4.75;3.10;;;;;;;-148.88;100.00;-17125.47;4937442;29;20103;-76
2023/09/06 01:35:34;;;;;;;9.93;3.28;;;;;;;-148.88;100.00;-17125.47;4938022;29;20086;-75
2023/09/06 01:37:59;;;;;;;5.60;3.67;;;;;;;-148.88;100.00;-17125.47;4937397;29;20034;-76
2023/09/06 01:40:26;;;;;;;4.78;2.92;;;;;;;-148.88;100.00;-17125.47;4937442;29;20035;-76
2023/09/06 01:42:52;;;;;;;4.07;3.20;;;;;;;-148.88;100.00;-17125.47;4936133;29;20024;-75
2023/09/06 01:45:18;;;;;;;6.35;3.25;;;;;;;-148.88;100.00;-17125.47;4936227;29;20082;-76
2023/09/06 01:47:46;;;;;;;4.75;2.75;;;;;;;-148.88;100.00;-17125.47;4936127;29;20042;-76
2023/09/06 01:50:12;;;;;;;4.00;2.58;;;;;;;-148.88;100.00;-17125.47;4936156;29;20367;-76
2023/09/06 01:52:40;;;;;;;4.45;2.83;;;;;;;-148.88;100.00;-17125.47;4937529;29;20024;-76
2023/09/06 01:55:09;;;;;;;3.80;2.38;;;;;;;-148.88;100.00;-17125.47;4937616;29;20429;-76
2023/09/06 01:57:34;;;;;;;6.22;3.00;;;;;;;-148.88;100.00;-17125.47;4936108;29;20024;-75
2023/09/06 02:00:00;;;;;;;3.42;2.70;;;;;;;-148.88;100.00;-17125.47;4937880;29;20042;-76
2023/09/06 02:02:25;;;;;;;3.90;2.72;;;;;;;-148.88;100.00;-17125.47;4937906;29;20102;-75
2023/09/06 02:04:50;;;;;;;4.38;2.92;;;;;;;-148.88;100.00;-17125.47;4937603;29;20483;-75
2023/09/06 02:07:16;;;;;;;3.45;2.58;;;;;;;-148.88;100.00;-17125.47;4937343;29;20399;-75
2023/09/06 02:09:41;;;;;;;3.80;2.90;;;;;;;-148.88;100.00;-17125.47;4936023;29;20110;-76
2023/09/06 02:12:07;;;;;;;5.43;2.80;;;;;;;-148.88;100.00;-17125.47;4937397;29;20019;-76
2023/09/06 02:14:34;;;;;;;6.00;2.67;;;;;;;-148.88;100.00;-17125.47;4935780;29;20019;-75
2023/09/06 02:17:00;;;;;;;4.32;2.80;;;;;;;-148.88;100.00;-17125.47;4936933;29;20034;-76
2023/09/06 02:19:25;;;;;;;4.47;2.80;;;;;;;-148.88;100.00;-17125.47;4936819;29;20416;-76
2023/09/06 02:21:52;;;;;;;4.75;2.80;;;;;;;-148.88;100.00;-17125.47;4936823;29;20106;-75
2023/09/06 02:24:18;;;;;;;3.47;2.50;;;;;;;-148.88;100.00;-17125.47;4936834;29;20030;-75
2023/09/06 02:26:43;;;;;;;5.00;2.78;;;;;;;-148.88;100.00;-17125.47;4936934;29;20079;-76
2023/09/06 02:29:10;;;;;;;4.40;2.80;;;;;;;-148.88;100.00;-17125.47;4935346;29;20475;-76
2023/09/06 02:31:37;;;;;;;4.43;2.70;;;;;;;-148.88;100.00;-17125.47;4935322;29;20083;-76
2023/09/06 02:34:04;;;;;;;4.22;2.67;;;;;;;-148.88;100.00;-17125.47;5015677;23;20042;-75
2023/09/06 02:36:30;;;;;;;5.00;2.70;;;;;;;-148.88;100.00;-17125.47;4974745;28;20468;-76
2023/09/06 02:38:57;;;;;;;3.72;2.88;;;;;;;-148.88;100.00;-17125.47;4974824;28;20106;-76
2023/09/06 02:41:23;;;;;;;3.85;3.00;;;;;;;-148.88;100.00;-17125.47;4973556;28;20030;-76
2023/09/06 02:43:48;;;;;;;3.78;2.83;;;;;;;-148.88;100.00;-17125.47;4974798;28;20444;-76
2023/09/06 02:46:15;;;;;;;4.70;2.97;;;;;;;-148.88;100.00;-17125.47;4975046;28;20030;-76
2023/09/06 02:48:46;;;;;;;3.65;2.85;;;;;;;-148.88;100.00;-17125.47;4974775;28;20027;-76
2023/09/06 02:51:14;;;;;;;5.72;2.92;;;;;;;-148.88;100.00;-17125.47;4974816;28;20397;-76
2023/09/06 02:53:44;;;;;;;5.63;2.90;;;;;;;-148.88;100.00;-17125.47;4973221;28;20050;-75
2023/09/06 02:56:10;;;;;;;4.85;2.65;;;;;;;-148.88;100.00;-17125.47;4974755;28;20089;-76
2023/09/06 02:58:37;;;;;;;4.95;2.50;;;;;;;-148.88;100.00;-17125.47;4974785;28;20038;-76
2023/09/06 03:01:06;;;;;;;3.65;2.35;;;;;;;-148.88;100.00;-17125.47;4973872;28;20018;-75
2023/09/06 03:03:31;;;;;;;4.57;2.80;;;;;;;-148.88;100.00;-17125.47;4974689;28;20022;-75
2023/09/06 03:05:58;;;;;;;3.92;2.42;;;;;;;-148.88;100.00;-17125.47;4974366;28;20037;-75
2023/09/06 03:08:25;;;;;;;4.78;2.90;;;;;;;-148.88;100.00;-17125.47;4974305;28;20347;-75
2023/09/06 03:10:52;;;;;;;3.83;2.70;;;;;;;-148.88;100.00;-17125.47;4972982;28;20027;-75
2023/09/06 03:13:20;;;;;;;5.03;2.63;;;;;;;-148.88;100.00;-17125.47;4972787;28;20165;-75
2023/09/06 03:15:46;;;;;;;4.05;2.78;;;;;;;-148.88;100.00;-17125.47;4974508;28;20114;-76
2023/09/06 03:18:11;;;;;;;4.50;2.72;;;;;;;-148.88;100.00;-17125.47;4972835;28;20061;-75
2023/09/06 03:20:43;;;;;;;4.50;2.60;;;;;;;-148.88;100.00;-17125.47;4972815;28;20082;-76
2023/09/06 03:23:17;;;;;;;4.68;2.58;;;;;;;-148.88;100.00;-17125.47;4974237;28;20054;-76
2023/09/06 03:25:47;;;;;;;;;;;;;;;-148.88;100.00;-17125.47;4973126;28;20035;-76
2023/09/06 03:28:13;;;;;;;5.25;3.20;;;;;;;-148.88;100.00;-17125.47;4973999;28;19910;-76
2023/09/06 03:30:39;;;;;;;4.47;2.97;;;;;;;-148.88;100.00;-17125.47;4973886;28;20031;-76
2023/09/06 03:33:06;;;;;;;7.30;3.63;;;;;;;-148.88;100.00;-17125.47;4973712;28;20022;-76
2023/09/06 03:35:31;;;;;;;7.53;3.38;;;;;;;-148.88;100.00;-17125.47;4973824;28;20026;-76
2023/09/06 03:37:57;;;;;;;5.55;3.50;;;;;;;-148.88;100.00;-17125.47;4972602;28;20022;-75
2023/09/06 03:40:34;;;;;;;5.40;3.42;;;;;;;-148.88;100.00;-17125.47;4973980;28;20023;-75
2023/09/06 03:43:00;;;;;;;5.30;3.70;;;;;;;-148.88;100.00;-17125.47;4972481;28;20026;-75
2023/09/06 03:45:27;;;;;;;4.40;3.60;;;;;;;-148.88;100.00;-17125.47;4974002;28;20155;-76
2023/09/06 03:47:53;;;;;;;4.40;3.20;;;;;;;-148.88;100.00;-17125.47;4973547;28;20030;-76
2023/09/06 03:50:21;;;;;;;5.82;3.15;;;;;;;-148.88;100.00;-17125.47;4972470;28;20102;-76
2023/09/06 03:52:47;;;;;;;5.68;2.80;;;;;;;-148.88;100.00;-17125.47;4972384;28;20032;-76
2023/09/06 03:55:12;;;;;;;5.38;3.20;;;;;;;-148.88;100.00;-17125.47;4972400;28;20039;-76
2023/09/06 03:57:38;;;;;;;5.78;3.78;;;;;;;-148.88;100.00;-17125.47;4973578;28;20027;-77
2023/09/06 04:03:07;;;;;;;4.97;3.38;;;;;;;-148.88;100.00;-17125.47;4933350;29;20030;-76
2023/09/06 04:05:34;;;;;;;5.65;4.18;;;;;;;-148.88;100.00;-17125.47;4965529;28;20115;-76
2023/09/06 04:08:04;;;;;;;5.55;3.33;;;;;;;-148.88;100.00;-17125.47;4973587;28;20061;-76
2023/09/06 04:10:38;;;;;;;4.05;3.10;;;;;;;-148.88;100.00;-17125.47;4973834;28;20026;-76
2023/09/06 04:13:08;;;;;;;5.10;3.10;;;;;;;-148.88;100.00;-17125.47;4973730;28;20023;-76
2023/09/06 04:15:35;;;;;;;4.78;3.28;;;;;;;-148.88;100.00;-17125.47;4974795;28;20038;-83
2023/09/06 04:18:05;;;;;;;6.50;3.88;;;;;;;-148.88;100.00;-17125.47;4972802;28;20042;-76
2023/09/06 04:20:39;;;;;;;7.10;4.00;;;;;;;-148.88;100.00;-17125.47;4972081;28;20386;-76
2023/09/06 04:23:06;;;;;;;7.47;3.90;;;;;;;-148.88;100.00;-17125.47;4972321;28;20019;-76
2023/09/06 04:25:34;;;;;;;5.68;3.70;;;;;;;-148.88;100.00;-17125.47;4973315;28;20046;-76
2023/09/06 04:28:07;;;;;;;6.82;3.72;;;;;;;-148.88;100.00;-17125.47;4973232;28;20062;-76
2023/09/06 04:30:35;;;;;;;6.38;4.05;;;;;;;-148.88;100.00;-17125.47;4973304;28;20023;-76
2023/09/06 04:33:01;;;;;;;8.75;3.92;;;;;;;-148.88;100.00;-17125.47;4971731;28;20467;-76
2023/09/06 04:35:33;;;;;;;5.97;4.10;;;;;;;-148.88;100.00;-17125.47;4971719;28;20076;-76
2023/09/06 04:37:59;;;;;;;6.13;3.70;;;;;;;-148.88;100.00;-17125.47;4971872;28;20030;-76
2023/09/06 04:40:25;;;;;;;4.72;3.63;;;;;;;-148.88;100.00;-17125.47;4973366;28;20022;-76
2023/09/06 04:42:51;;;;;;;5.32;3.55;;;;;;;-148.88;100.00;-17125.47;4971758;28;20074;-76
2023/09/06 04:45:16;;;;;;;5.25;3.40;;;;;;;-148.88;100.00;-17125.47;4971804;28;20018;-76
2023/09/06 04:47:43;;;;;;;6.88;3.47;;;;;;;-148.88;100.00;-17125.47;4971766;28;20023;-76
2023/09/06 04:50:12;;;;;;;5.38;3.50;;;;;;;-148.88;100.00;-17125.47;4972230;28;20026;-76
2023/09/06 04:52:44;;;;;;;7.03;3.85;;;;;;;-148.88;100.00;-17125.47;4973030;28;20108;-76
2023/09/06 04:55:12;;;;;;;5.68;3.75;;;;;;;-148.88;100.00;-17125.47;4971898;28;20125;-76
2023/09/06 04:57:38;;;;;;;5.60;3.65;;;;;;;-148.88;100.00;-17125.47;4970060;28;20094;-76
2023/09/06 05:00:18;;;;;;;5.32;3.90;;;;;;;-148.88;100.00;-17125.47;4974269;28;20110;-76
2023/09/06 05:02:47;;;;;;;6.75;4.30;;;;;;;-148.88;100.00;-17125.47;4976636;28;20387;-76
2023/09/06 05:05:16;;;;;;;5.28;3.60;;;;;;;-148.88;100.00;-17125.47;4976117;28;20486;-76
2023/09/06 05:07:42;;;;;;;6.30;4.07;;;;;;;-148.88;100.00;-17125.47;4976299;28;20027;-76
2023/09/06 05:10:11;;;;;;;5.45;3.97;;;;;;;-148.88;100.00;-17125.47;4976216;28;20404;-76
2023/09/06 05:12:36;;;;;;;5.60;3.58;;;;;;;-148.88;100.00;-17125.47;4976325;28;20066;-76
2023/09/06 05:15:06;;;;;;;6.85;3.90;;;;;;;-148.88;100.00;-17125.47;4975087;28;20052;-76
2023/09/06 05:17:35;;;;;;;4.93;3.70;;;;;;;-148.88;100.00;-17125.47;4975031;28;20096;-76
2023/09/06 05:20:24;;;;;;;5.22;3.35;;;;;;;-148.88;100.00;-17125.47;4975019;28;20026;-76
2023/09/06 05:22:49;;;;;;;5.43;3.30;;;;;;;-148.88;100.00;-17125.47;4976448;28;20143;-76
2023/09/06 05:25:15;;;;;;;4.35;3.35;;;;;;;-148.88;100.00;-17125.47;4976267;28;20117;-76
2023/09/06 05:27:40;;;;;;;5.28;3.90;;;;;;;-148.88;100.00;-17125.47;4976545;28;20094;-76
2023/09/06 05:30:06;;;;;;;4.70;3.72;;;;;;;-148.88;100.00;-17125.47;4975217;28;20023;-76
2023/09/06 05:32:31;;;;;;;6.47;3.63;;;;;;;-148.88;100.00;-17125.47;4975899;28;20038;-76
2023/09/06 05:34:56;;;;;;;9.95;4.35;;;;;;;-148.88;100.00;-17125.47;4974868;28;20602;-76
2023/09/06 05:37:24;;;;;;;4.45;3.92;;;;;;;-148.88;100.00;-17125.47;4976159;28;20109;-76
2023/09/06 05:39:52;;;;;;;5.50;4.00;;;;;;;-148.88;100.00;-17125.47;4975981;28;20031;-76
2023/09/06 05:42:17;;;;;;;6.00;4.35;;;;;;;-148.88;100.00;-17125.47;4976262;28;20026;-77
2023/09/06 05:44:43;;;;;;;6.30;4.50;;;;;;;-148.88;100.00;-17125.47;4976037;28;20483;-76
2023/09/06 05:47:08;;;;;;;6.15;4.45;;;;;;;-148.88;100.00;-17125.47;4975852;28;20026;-76
2023/09/06 05:49:35;;;;;;;7.65;3.90;;;;;;;-148.88;100.00;-17125.47;4975850;28;20035;-76
2023/09/06 05:52:02;;;;;;;4.82;3.85;;;;;;;-148.88;100.00;-17125.47;4974771;28;20034;-76
2023/09/06 05:54:27;;;;;;;7.00;5.20;;;;;;;-148.88;100.00;-17125.47;4975682;28;20027;-77
2023/09/06 05:56:53;;;;;;;7.15;4.93;;;;;;;-148.88;100.00;-17125.47;4974508;28;20054;-76
2023/09/06 05:59:19;;;;;;;6.60;4.55;;;;;;;-148.88;100.00;-17125.47;4975972;28;20426;-76
2023/09/06 06:01:45;;;;;;;6.63;4.43;;;;;;;-148.88;100.00;-17125.47;4976945;28;20053;-76
2023/09/06 06:04:11;;;;;;;6.70;4.63;;;;;;;-148.88;100.00;-17125.47;4980204;28;20090;-76
2023/09/06 06:06:37;;;;;;;5.95;4.68;;;;;;;-148.88;100.00;-17125.47;4975539;28;20033;-76
2023/09/06 06:09:04;;;;;;;5.90;4.50;;;;;;;-148.88;100.00;-17125.47;4975402;28;20022;-76
2023/09/06 06:11:30;;;;;;;5.95;4.35;;;;;;;-148.88;100.00;-17125.47;4975043;28;20066;-76
2023/09/06 06:13:56;;;;;;;6.28;5.00;;;;;;;-148.88;100.00;-17125.47;4975249;28;20111;-76
2023/09/06 06:16:21;;;;;;;5.85;4.65;;;;;;;-148.88;100.00;-17125.47;4975486;28;20154;-77
2023/09/06 06:18:49;;;;;;;7.70;4.78;;;;;;;-148.88;100.00;-17125.47;4975832;28;20482;-76
2023/09/06 06:21:15;;;;;;;8.45;4.93;;;;;;;-148.88;100.00;-17125.47;4974270;28;20482;-77
2023/09/06 06:23:43;;;;;;;7.75;4.88;;;;;;;-148.88;100.00;-17125.47;4975531;28;20027;-76
2023/09/06 06:26:09;;;;;;;7.82;5.72;;;;;;;-148.88;100.00;-17125.47;4975563;28;20034;-77
2023/09/06 06:28:35;;;;;;;8.38;5.22;;;;;;;-148.88;100.00;-17125.47;4975520;28;20068;-77
2023/09/06 06:31:00;;;;;;;7.72;5.43;;;;;;;-148.88;100.00;-17125.47;4974416;28;20046;-77
2023/09/06 06:33:26;;;;;;;7.72;5.55;;;;;;;-148.88;100.00;-17125.47;4975521;28;20031;-77
2023/09/06 06:35:51;;;;;;;6.35;5.25;;;;;;;-148.88;100.00;-17125.47;4975576;28;20490;-77
2023/09/06 06:38:16;;;;;;;7.25;4.88;;;;;;;-148.88;100.00;-17125.47;4975971;28;20115;-76
2023/09/06 06:40:42;;;;;;;10.15;5.60;;;;;;;-148.88;100.00;-17125.47;4974695;28;20054;-77
2023/09/06 06:43:07;;;;;;;6.75;4.88;;;;;;;-148.88;100.00;-17125.47;4975376;28;20050;-77
2023/09/06 06:45:33;;;;;;;6.85;5.00;;;;;;;-148.88;100.00;-17125.47;4975377;28;20083;-77
2023/09/06 06:47:58;;;;;;;6.75;4.53;;;;;;;-148.88;100.00;-17125.47;4973700;28;20123;-76
2023/09/06 06:50:23;;;;;;;7.38;4.85;;;;;;;-148.88;100.00;-17125.47;4974999;28;20022;-76
2023/09/06 06:52:49;;;;;;;7.53;5.28;;;;;;;-148.88;100.00;-17125.47;4973596;28;20027;-76
2023/09/06 06:55:15;;;;;;;6.75;4.80;;;;;;;-148.88;100.00;-17125.47;4974998;28;20027;-76
2023/09/06 06:57:41;;;;;;;6.20;4.75;;;;;;;-148.88;100.00;-17125.47;4974944;28;20122;-76
2023/09/06 07:00:11;;;;;;;6.47;5.03;;;;;;;-148.88;100.00;-17125.47;4974827;28;20031;-76
2023/09/06 07:02:37;;;;;;;7.50;4.53;;;;;;;-148.88;100.00;-17125.47;4974868;28;20023;-76
2023/09/06 07:05:03;;;;;;;7.22;4.47;;;;;;;-148.88;100.00;-17125.47;4975101;28;20026;-77
2023/09/06 07:07:28;;;;;;;6.00;4.60;;;;;;;-148.88;100.00;-17125.47;4975123;28;20034;-77
2023/09/06 07:09:54;;;;;;;7.00;4.22;;;;;;;-148.88;100.00;-17125.47;4975019;28;20027;-77
2023/09/06 07:12:19;;;;;;;5.57;3.92;;;;;;;-148.88;100.00;-17125.47;4973782;28;20022;-77
2023/09/06 07:14:45;;;;;;;5.72;3.58;;;;;;;-148.88;100.00;-17125.47;4974411;28;20502;-77
2023/09/06 07:17:11;;;;;;;5.57;4.25;;;;;;;-148.88;100.00;-17125.47;4975761;28;20053;-76
2023/09/06 07:19:36;;;;;;;5.75;4.28;;;;;;;-148.88;100.00;-17125.47;4974652;28;20037;-76
2023/09/06 07:22:03;;;;;;;6.97;4.10;;;;;;;-148.88;100.00;-17125.47;4974106;28;20031;-77
2023/09/06 07:24:28;;;;;;;7.47;3.53;;;;;;;-148.88;100.00;-17125.47;4974466;28;20019;-77
2023/09/06 07:26:54;;;;;;;6.68;3.67;;;;;;;-148.88;100.00;-17125.47;4973231;28;20030;-78
2023/09/06 07:29:19;;;;;;;6.07;3.88;;;;;;;-148.88;100.00;-17125.47;4974850;28;20038;-77
2023/09/06 07:31:45;;;;;;;5.45;3.60;;;;;;;-148.88;100.00;-17125.47;4974617;28;20050;-77
2023/09/06 07:34:10;;;;;;;7.03;3.75;;;;;;;-148.88;100.00;-17125.47;4974294;28;20026;-77
2023/09/06 07:36:35;;;;;;;8.25;3.65;;;;;;;-148.88;100.00;-17125.47;4974465;28;20027;-77
2023/09/06 07:39:01;;;;;;;5.30;3.33;;;;;;;-148.88;100.00;-17125.47;4974146;28;20509;-77
2023/09/06 07:41:27;;;;;;;5.80;3.50;;;;;;;-148.88;100.00;-17125.47;4974368;28;20019;-76
2023/09/06 07:43:52;;;;;;;6.13;3.70;;;;;;;-148.88;100.00;-17125.47;4974332;28;20366;-77
2023/09/06 07:46:18;;;;;;;4.93;3.53;;;;;;;-148.88;100.00;-17125.47;4972803;28;20122;-76
2023/09/06 07:48:43;;;;;;;5.93;3.22;;;;;;;-148.88;100.00;-17125.47;4974252;28;20022;-76
2023/09/06 07:51:09;;;;;;;7.07;3.75;;;;;;;-148.88;100.00;-17125.47;4973299;28;20030;-76
2023/09/06 07:53:34;;;;;;;4.53;3.03;;;;;;;-148.88;100.00;-17125.47;4975255;28;20030;-76
2023/09/06 07:56:00;;;;;;;6.82;3.30;;;;;;;-148.88;100.00;-17125.47;4974087;28;20525;-76
2023/09/06 07:58:26;;;;;;;4.43;2.85;;;;;;;-148.88;100.00;-17125.47;4972605;28;20025;-77
2023/09/06 08:00:52;;;;;;;8.07;3.30;;;;;;;-148.88;100.00;-17125.47;4973867;28;20473;-77
2023/09/06 08:03:18;;;;;;;5.70;3.17;;;;;;;-148.88;100.00;-17125.47;4972610;28;20030;-76
2023/09/06 08:05:43;;;;;;;7.47;3.10;;;;;;;-148.88;100.00;-17125.47;4974145;28;20022;-76
2023/09/06 08:08:10;;;;;;;8.65;3.55;;;;;;;-148.88;100.00;-17125.47;4973736;28;20489;-77
2023/09/06 08:10:37;;;;;;;6.25;3.22;;;;;;;-148.88;100.00;-17125.47;4973786;28;20153;-76
2023/09/06 08:13:03;;;;;;;5.05;3.03;;;;;;;-148.88;100.00;-17125.47;4972373;28;20019;-76
2023/09/06 08:15:30;;;;;;;4.97;2.92;;;;;;;-148.88;100.00;-17125.47;4973891;28;20059;-77
2023/09/06 08:17:56;;;;;;;5.95;3.33;;;;;;;-148.88;100.00;-17125.47;4972361;28;20034;-76
2023/09/06 08:20:22;;;;;;;7.18;2.95;;;;;;;-148.88;100.00;-17125.47;4973792;28;20035;-76
2023/09/06 08:22:47;;;;;;;5.80;2.83;;;;;;;-148.88;100.00;-17125.47;4973829;28;20019;-77
2023/09/06 08:25:17;;;;;;;5.53;2.78;;;;;;;-148.88;100.00;-17125.47;4972749;28;20542;-77
2023/09/06 08:27:43;;;;;;;4.43;2.92;;;;;;;-148.88;100.00;-17125.47;4974059;28;20482;-76
2023/09/06 08:30:15;;;;;;;8.25;3.00;;;;;;;-148.88;100.00;-17125.47;4973045;28;20025;-76
2023/09/06 08:32:42;;;;;;;4.20;2.40;;;;;;;-148.88;100.00;-17125.47;4973639;28;20031;-76
2023/09/06 08:35:08;;;;;;;5.38;2.60;;;;;;;-148.88;100.00;-17125.47;4975380;28;20058;-76
2023/09/06 08:37:34;;;;;;;3.78;2.42;;;;;;;-148.88;100.00;-17125.47;4976620;28;20029;-76
2023/09/06 08:40:01;;;;;;;4.45;2.45;;;;;;;-148.88;100.00;-17125.47;4977329;28;20026;-76
2023/09/06 08:42:27;;;;;;;4.60;2.05;;;;;;;-148.88;99.96;-17125.47;4977338;28;20389;-76
2023/09/06 08:44:55;;;;;;;4.13;2.40;;;;;;;-148.88;100.00;-17125.47;4977596;28;20485;-76
2023/09/06 08:47:21;;;;;;;3.88;2.20;;;;;;;-148.88;100.00;-17125.47;4977293;28;20030;-76
2023/09/06 08:49:47;;;;;;;5.30;2.33;;;;;;;-148.88;98.89;-17125.47;4977287;28;20022;-77
2023/09/06 08:52:14;;;;;;;4.85;2.40;;;;;;;-148.88;99.98;-17125.47;4977167;28;20090;-76
2023/09/06 08:54:44;;;;;;;5.75;2.45;;;;;;;-148.88;98.95;-17125.47;4977249;28;20021;-76
2023/09/06 08:57:11;;;;;;;4.95;2.65;;;;;;;-148.88;96.98;-17125.47;4977473;28;20023;-76
2023/09/06 08:59:38;;;;;;;5.85;2.40;;;;;;;-148.88;97.41;-17125.47;4977877;28;20031;-77
2023/09/06 09:02:04;;;;;;;4.18;2.08;;;;;;;-148.88;94.75;-17125.47;4978323;28;20023;-77
2023/09/06 09:04:29;;;;;;;5.72;2.28;;;;;;;-148.88;93.96;-17125.47;4978747;28;20086;-78
2023/09/06 09:06:55;;;;;;;3.40;2.08;;;;;;;-148.88;94.34;-17125.47;4979712;28;20026;-76
2023/09/06 09:09:20;;;;;;;5.85;2.58;;;;;;;-148.88;92.14;-17125.47;4977686;28;20151;-76
2023/09/06 09:11:50;;;;;;;6.03;2.40;;;;;;;-148.88;93.10;-17125.47;4975591;28;20022;-76
2023/09/06 09:14:20;;;;;;;5.20;2.30;;;;;;;-148.88;91.51;-17125.47;4976656;28;20023;-76
2023/09/06 09:16:53;;;;;;;4.43;2.15;;;;;;;-148.88;90.98;-17125.47;4975569;28;20041;-76
2023/09/06 09:19:21;;;;;;;3.88;2.10;;;;;;;-148.88;87.81;-17125.47;4976951;28;20085;-76
2023/09/06 09:21:47;;;;;;;4.80;2.83;;;;;;;-148.88;89.34;-17125.47;4975340;28;20038;-76
2023/09/06 09:24:12;;;;;;;5.60;2.55;;;;;;;-148.88;85.80;-17125.47;4976611;28;20026;-77
2023/09/06 09:26:41;;;;;;;5.90;2.80;;;;;;;-148.88;84.21;-17125.47;4975319;28;20545;-76
2023/09/06 09:29:12;;;;;;;4.88;2.22;;;;;;;-148.88;82.94;-17125.47;4976607;28;20026;-76
2023/09/06 09:31:40;;;;;;;4.95;2.67;;;;;;;-148.88;87.04;-17125.47;4976702;28;20483;-76
2023/09/06 09:34:05;;;;;;;4.72;2.30;;;;;;;-148.88;90.96;-17125.47;4976593;28;20037;-76
2023/09/06 09:36:34;;;;;;;5.05;2.53;;;;;;;-148.88;87.02;-17125.47;4976862;28;20035;-76
2023/09/06 09:39:06;;;;;;;3.72;2.28;;;;;;;-148.88;80.50;-17125.47;4975339;28;20117;-76
2023/09/06 09:41:32;;;;;;;4.70;2.50;;;;;;;-148.88;81.46;-17125.47;4977469;28;20489;-76
2023/09/06 09:44:14;;;;;;;7.45;2.75;;;;;;;-148.88;80.85;-17125.47;4976973;28;20081;-76
2023/09/06 09:46:44;;;;;;;7.18;2.20;;;;;;;-148.88;74.07;-17125.47;4975770;28;20105;-76
2023/09/06 09:49:10;;;;;;;6.03;2.20;;;;;;;-148.88;77.53;-17125.47;4975116;28;20118;-77
2023/09/06 09:51:37;;;;;;;4.70;1.90;;;;;;;-148.88;75.93;-17125.47;4976267;28;20042;-76
2023/09/06 09:54:04;;;;;;;2.25;1.70;;;;;;;-148.88;72.57;-17125.47;4975908;28;20109;-76
2023/09/06 09:56:32;;;;;;;3.88;2.25;;;;;;;-148.88;70.63;-17125.47;4975707;28;20121;-76
2023/09/06 09:59:00;;;;;;;4.88;1.92;;;;;;;-148.88;65.95;-17125.47;4975755;28;20046;-77
2023/09/06 10:01:27;;;;;;;7.13;2.10;;;;;;;-148.88;70.26;-17125.47;4974546;28;20023;-76
2023/09/06 10:03:55;;;;;;;3.10;1.90;;;;;;;-148.88;65.08;-17125.47;4975476;28;20102;-76
2023/09/06 10:06:24;;;;;;;5.20;1.67;;;;;;;-148.88;63.98;-17125.47;4975534;28;20402;-76
2023/09/06 10:08:53;;;;;;;6.50;2.00;;;;;;;-148.88;64.47;-17125.47;4973946;28;20057;-77
2023/09/06 10:11:20;;;;;;;5.32;1.88;;;;;;;-148.88;62.27;-17125.47;4973949;28;20049;-76
2023/09/06 10:13:47;;;;;;;4.68;1.95;;;;;;;-148.88;63.83;-17125.47;4975185;28;20470;-76
2023/09/06 10:16:13;;;;;;;5.57;1.80;;;;;;;-148.88;62.24;-17125.47;4975326;28;20482;-78
2023/09/06 10:18:39;;;;;;;3.38;1.70;;;;;;;-148.88;60.28;-17125.47;4975366;28;20482;-76
2023/09/06 10:21:06;;;;;;;3.08;1.80;;;;;;;-148.88;61.58;-17125.47;4973890;28;20085;-77
2023/09/06 10:23:32;;;;;;;2.92;1.85;;;;;;;-148.88;60.76;-17125.47;4973774;28;20018;-76
2023/09/06 10:26:00;;;;;;;2.45;1.67;;;;;;;-148.88;61.42;-17125.47;4974982;28;20033;-76
2023/09/06 10:28:31;;;;;;;4.38;2.13;;;;;;;-148.88;59.19;-17125.47;4974834;28;20030;-76
2023/09/06 10:31:07;;;;;;;5.50;1.90;;;;;;;-148.88;59.98;-17125.47;4974909;28;20027;-74
2023/09/06 10:33:42;;;;;;;4.25;1.90;;;;;;;-148.88;56.63;-17125.47;4974710;28;20023;-75
2023/09/06 10:36:15;;;;;;;5.22;1.98;;;;;;;-148.88;57.26;-17125.47;4975164;28;20030;-74
2023/09/06 10:38:54;;;;;;;3.78;2.03;;;;;;;-148.88;61.31;-17125.47;4974795;28;20049;-74
2023/09/06 10:41:21;;;;;;;4.35;1.65;;;;;;;-148.88;58.92;-17125.47;4973495;28;20022;-74
2023/09/06 10:43:58;;;;;;;2.83;1.95;;;;;;;-148.88;51.50;-17125.47;4974769;28;20055;-75
2023/09/06 10:46:26;;;;;;;4.50;1.85;;;;;;;-148.88;54.30;-17125.47;4973377;28;20022;-74
2023/09/06 10:49:17;;;;;;;5.30;1.88;;;;;;;-148.88;52.28;-17125.47;4974733;28;20022;-74
2023/09/06 10:52:01;;;;;;;3.03;2.10;;;;;;;-148.88;47.33;-17125.47;4973303;28;20080;-74
2023/09/06 10:54:44;;;;;;;4.53;1.90;;;;;;;-148.88;52.15;-17125.47;4973203;28;20061;-74
2023/09/06 10:57:11;;;;;;;5.35;2.10;;;;;;;-148.88;50.67;-17125.47;4973091;28;20092;-74
2023/09/06 11:00:12;;;;;;;3.22;1.80;;;;;;;-148.88;48.46;-17125.47;4974406;28;20062;-74
2023/09/06 11:02:38;;;;;;;2.97;1.80;;;;;;;-148.88;52.00;-17125.47;4956965;28;20406;-74
2023/09/06 11:05:08;;;;;;;3.78;1.92;;;;;;;-148.88;49.84;-17125.47;4974328;28;20082;-74
2023/09/06 11:07:45;;;;;;;3.72;1.92;;;;;;;-148.88;48.57;-17125.47;4974150;28;20445;-74
2023/09/06 11:10:11;;;;;;;6.78;2.00;;;;;;;-148.88;48.45;-17125.47;4973125;28;20082;-75